Time;durP1;ratioP1;P1;durP2;ratioP2;P2;SDS_P1;SDS_P2;PMS_P1;PMS_P2;Temp;Humidity;BMP_temperature;BMP_pressure;BME280_temperature;BME280_humidity;BME280_pressure;Samples;Min_cycle;Max_cycle;Signal;HPM_P1;HPM_P2
2021/09/01 00:00:35;;;;;;;5.00;2.33;;;13.10;99.90;;;;;;4362647;28;654576;-70
2021/09/01 00:03:24;;;;;;;2.80;1.93;;;13.00;99.90;;;;;;4366780;28;655108;-70
2021/09/01 00:06:12;;;;;;;2.23;1.60;;;13.10;99.90;;;;;;4380986;28;654552;-70
2021/09/01 00:09:01;;;;;;;3.70;1.80;;;13.10;99.90;;;;;;4358885;28;654968;-70
2021/09/01 00:11:51;;;;;;;2.50;1.60;;;13.10;99.90;;;;;;4375894;28;654540;-70
2021/09/01 00:14:38;;;;;;;3.63;1.80;;;13.00;99.90;;;;;;4365547;28;654568;-70
2021/09/01 00:17:27;;;;;;;2.87;1.90;;;13.00;99.90;;;;;;4379699;28;654599;-70
2021/09/01 00:20:15;;;;;;;3.57;1.77;;;13.00;99.90;;;;;;4358244;28;655768;-70
2021/09/01 00:23:02;;;;;;;2.13;1.77;;;13.00;99.90;;;;;;4376383;28;654481;-70
2021/09/01 00:25:50;;;;;;;2.80;2.00;;;13.00;99.90;;;;;;4374991;28;656074;-70
2021/09/01 00:28:37;;;;;;;4.57;2.40;;;13.00;99.90;;;;;;4364199;28;654279;-69
2021/09/01 00:31:25;;;;;;;4.47;2.90;;;12.90;99.90;;;;;;4382614;28;655197;-69
2021/09/01 00:34:15;;;;;;;5.10;3.20;;;13.00;99.90;;;;;;4365092;28;654989;-70
2021/09/01 00:37:03;;;;;;;3.77;2.90;;;12.90;99.90;;;;;;4370700;28;654469;-70
2021/09/01 00:39:50;;;;;;;5.97;3.00;;;12.90;99.90;;;;;;4378178;28;654988;-70
2021/09/01 00:42:38;;;;;;;5.90;3.33;;;12.90;99.90;;;;;;4361812;28;654778;-70
2021/09/01 00:45:25;;;;;;;7.13;3.73;;;12.90;99.90;;;;;;4367923;28;656550;-70
2021/09/01 00:48:13;;;;;;;5.87;3.80;;;12.90;99.90;;;;;;4361464;28;654614;-70
2021/09/01 00:51:02;;;;;;;8.17;3.77;;;12.90;99.90;;;;;;4388076;28;655159;-70
2021/09/01 00:53:50;;;;;;;8.27;3.40;;;12.90;99.90;;;;;;4352817;28;655862;-70
2021/09/01 00:56:37;;;;;;;9.90;3.30;;;12.90;99.90;;;;;;4364298;28;654287;-70
2021/09/01 00:59:26;;;;;;;12.53;4.57;;;12.90;99.90;;;;;;4388075;28;655747;-70
2021/09/01 01:02:13;;;;;;;9.77;4.05;;;12.90;99.90;;;;;;4366790;28;656075;-70
2021/09/01 01:05:01;;;;;;;9.60;4.47;;;12.90;99.90;;;;;;4388375;28;655260;-70
2021/09/01 01:07:50;;;;;;;10.27;4.20;;;12.90;99.90;;;;;;4369511;28;654948;-70
2021/09/01 01:10:37;;;;;;;12.47;3.90;;;12.80;99.90;;;;;;4355889;28;655861;-69
2021/09/01 01:13:26;;;;;;;10.87;5.17;;;12.80;99.90;;;;;;4393009;28;656137;-70
2021/09/01 01:16:15;;;;;;;12.60;5.13;;;12.80;99.90;;;;;;4364595;28;655924;-70
2021/09/01 01:19:03;;;;;;;11.53;4.97;;;12.80;99.90;;;;;;4360092;28;655332;-70
2021/09/01 01:21:51;;;;;;;15.30;5.20;;;12.80;99.90;;;;;;4378521;28;655976;-70
2021/09/01 01:25:04;;;;;;;8.90;4.83;;;12.80;99.90;;;;;;4358273;28;655297;-69
2021/09/01 01:27:53;;;;;;;9.10;4.57;;;12.80;99.90;;;;;;4399381;28;654444;-70
2021/09/01 01:30:40;;;;;;;7.97;4.00;;;12.70;99.90;;;;;;4398787;28;654536;-70
2021/09/01 01:33:28;;;;;;;10.57;4.60;;;12.70;99.90;;;;;;4412095;28;655345;-70
2021/09/01 01:36:16;;;;;;;13.87;4.73;;;12.70;99.90;;;;;;4422348;28;655522;-70
2021/09/01 01:39:03;;;;;;;6.63;3.50;;;12.70;99.90;;;;;;4393702;28;655891;-70
2021/09/01 01:41:51;;;;;;;8.20;4.40;;;12.70;99.90;;;;;;4414204;28;655400;-70
2021/09/01 01:44:40;;;;;;;8.23;4.60;;;12.70;99.90;;;;;;4411512;28;654450;-70
2021/09/01 01:47:30;;;;;;;6.70;4.03;;;12.70;99.90;;;;;;4398322;28;654709;-70
2021/09/01 01:50:18;;;;;;;7.10;4.27;;;12.70;99.90;;;;;;4402056;28;654647;-70
2021/09/01 01:53:06;;;;;;;7.77;4.43;;;12.70;99.90;;;;;;4431438;28;655184;-70
2021/09/01 01:55:53;;;;;;;7.23;4.53;;;12.60;99.90;;;;;;4403917;28;654649;-70
2021/09/01 01:58:41;;;;;;;11.60;5.00;;;12.60;99.90;;;;;;4414433;28;655079;-70
2021/09/01 02:01:30;;;;;;;7.97;4.97;;;12.60;99.90;;;;;;4400877;28;655351;-70
2021/09/01 02:04:18;;;;;;;9.33;5.40;;;12.60;99.90;;;;;;4408030;28;655071;-70
2021/09/01 02:07:05;;;;;;;9.60;4.60;;;12.60;99.90;;;;;;4420236;28;654529;-70
2021/09/01 02:09:53;;;;;;;13.03;5.27;;;12.60;99.90;;;;;;4360130;28;654514;-70
2021/09/01 02:12:41;;;;;;;8.27;5.03;;;12.50;99.90;;;;;;4386599;28;655665;-70
2021/09/01 02:15:28;;;;;;;10.00;6.00;;;12.50;99.90;;;;;;4378323;28;654701;-70
2021/09/01 02:18:17;;;;;;;11.40;5.57;;;12.50;99.90;;;;;;4387404;28;655937;-70
2021/09/01 02:21:04;;;;;;;10.60;6.57;;;12.50;99.90;;;;;;4343458;28;656362;-70
2021/09/01 02:23:52;;;;;;;12.97;7.10;;;12.50;99.90;;;;;;4369507;28;655555;-69
2021/09/01 02:26:40;;;;;;;10.17;5.23;;;12.50;99.90;;;;;;4384211;28;656509;-70
2021/09/01 02:29:27;;;;;;;12.10;6.70;;;12.50;99.90;;;;;;4364088;28;655251;-69
2021/09/01 02:32:15;;;;;;;17.53;6.50;;;12.50;99.90;;;;;;4383611;28;656530;-70
2021/09/01 02:35:05;;;;;;;13.57;6.33;;;12.50;99.90;;;;;;4371036;28;655925;-70
2021/09/01 02:37:53;;;;;;;13.07;6.23;;;12.40;99.90;;;;;;4363333;28;655833;-70
2021/09/01 02:40:40;;;;;;;10.37;5.60;;;12.50;99.90;;;;;;4381288;28;656577;-70
2021/09/01 02:43:28;;;;;;;12.17;5.70;;;12.40;99.90;;;;;;4366969;28;655822;-70
2021/09/01 02:46:15;;;;;;;8.97;5.60;;;12.40;99.90;;;;;;4385566;28;656172;-69
2021/09/01 02:49:03;;;;;;;14.70;6.40;;;12.40;99.90;;;;;;4355898;28;655119;-70
2021/09/01 02:51:52;;;;;;;10.47;5.50;;;12.40;99.90;;;;;;4389963;28;656725;-70
2021/09/01 02:54:39;;;;;;;10.83;5.30;;;12.40;99.90;;;;;;4363160;28;656435;-70
2021/09/01 02:57:27;;;;;;;13.37;6.10;;;12.40;99.90;;;;;;4369505;28;655326;-70
2021/09/01 03:00:15;;;;;;;10.07;5.73;;;12.40;99.90;;;;;;4383908;28;656573;-69
2021/09/01 03:03:03;;;;;;;10.57;5.60;;;12.40;99.90;;;;;;4359271;28;656001;-70
2021/09/01 03:05:50;;;;;;;9.87;6.10;;;12.40;99.90;;;;;;4392849;28;656104;-69
2021/09/01 03:08:40;;;;;;;7.23;5.17;;;12.40;99.90;;;;;;4367701;28;654738;-70
2021/09/01 03:11:28;;;;;;;11.07;4.97;;;12.40;99.90;;;;;;4375675;28;655202;-70
2021/09/01 03:14:15;;;;;;;12.17;6.40;;;12.30;99.90;;;;;;4389947;28;655798;-70
2021/09/01 03:17:03;;;;;;;16.33;6.77;;;12.30;99.90;;;;;;4369652;28;656017;-70
2021/09/01 03:19:50;;;;;;;9.70;6.40;;;12.40;99.90;;;;;;4387815;28;655521;-70
2021/09/01 03:22:38;;;;;;;9.77;5.67;;;12.30;99.90;;;;;;4360931;28;654688;-70
2021/09/01 03:25:27;;;;;;;12.13;6.90;;;12.30;99.90;;;;;;4385409;28;655214;-70
2021/09/01 03:28:15;;;;;;;12.20;6.33;;;12.30;99.90;;;;;;4365092;28;655772;-70
2021/09/01 03:31:02;;;;;;;10.27;6.20;;;12.30;99.90;;;;;;4381920;28;656142;-70
2021/09/01 03:33:50;;;;;;;10.00;6.00;;;12.30;99.90;;;;;;4388688;28;656449;-69
2021/09/01 03:36:37;;;;;;;10.67;6.77;;;12.30;99.90;;;;;;4378459;28;655422;-70
2021/09/01 03:39:25;;;;;;;11.13;6.13;;;12.30;99.90;;;;;;4397523;28;656702;-70
2021/09/01 03:42:14;;;;;;;8.87;5.80;;;12.30;99.90;;;;;;4351908;28;655760;-70
2021/09/01 03:45:01;;;;;;;8.97;5.80;;;12.30;99.90;;;;;;4397151;28;654803;-69
2021/09/01 03:47:49;;;;;;;8.03;5.70;;;12.30;99.90;;;;;;4373761;28;655358;-70
2021/09/01 03:50:37;;;;;;;7.87;5.10;;;12.30;99.90;;;;;;4396515;28;654668;-70
2021/09/01 03:53:25;;;;;;;11.50;5.43;;;12.30;99.90;;;;;;4376460;28;655346;-70
2021/09/01 03:56:12;;;;;;;9.33;5.93;;;12.30;99.90;;;;;;4363659;28;656163;-70
2021/09/01 03:59:01;;;;;;;11.33;5.90;;;12.30;99.90;;;;;;4398900;28;655808;-70
2021/09/01 04:01:49;;;;;;;15.47;6.20;;;12.30;99.90;;;;;;4370174;28;656457;-69
2021/09/01 04:04:36;;;;;;;10.00;5.27;;;12.30;99.90;;;;;;4394622;28;655136;-70
2021/09/01 04:07:24;;;;;;;9.17;5.17;;;12.30;99.90;;;;;;4359323;28;656434;-69
2021/09/01 04:10:12;;;;;;;10.90;5.37;;;12.30;99.90;;;;;;4381934;28;654297;-69
2021/09/01 04:12:59;;;;;;;7.75;4.88;;;12.30;99.90;;;;;;4360604;28;656557;-70
2021/09/01 04:15:49;;;;;;;10.07;6.37;;;12.20;99.90;;;;;;4381097;28;654660;-70
2021/09/01 04:18:36;;;;;;;11.10;6.83;;;12.30;99.90;;;;;;4377842;28;655478;-69
2021/09/01 04:21:24;;;;;;;8.63;6.20;;;12.30;99.90;;;;;;4355983;28;656022;-70
2021/09/01 04:24:11;;;;;;;10.73;6.23;;;12.30;99.90;;;;;;4392633;28;654392;-70
2021/09/01 04:26:59;;;;;;;9.87;6.30;;;12.20;99.90;;;;;;4372672;28;656366;-70
2021/09/01 04:29:46;;;;;;;9.70;5.57;;;12.30;99.90;;;;;;4396536;28;654071;-69
2021/09/01 04:32:35;;;;;;;11.33;5.90;;;12.30;99.90;;;;;;4372411;28;655233;-70
2021/09/01 04:35:23;;;;;;;9.97;5.40;;;12.30;99.90;;;;;;4369497;28;655699;-69
2021/09/01 04:38:19;;;;;;;6.90;4.80;;;12.30;99.90;;;;;;4394355;28;655654;-69
2021/09/01 04:41:07;;;;;;;8.00;4.70;;;12.30;99.90;;;;;;4359509;28;654497;-69
2021/09/01 04:43:55;;;;;;;9.53;5.33;;;12.30;99.90;;;;;;4380374;28;654882;-70
2021/09/01 04:46:43;;;;;;;14.47;5.33;;;12.30;99.90;;;;;;4361685;28;654388;-70
2021/09/01 04:49:32;;;;;;;7.20;5.10;;;12.30;99.90;;;;;;4383579;28;655584;-70
2021/09/01 04:52:19;;;;;;;11.80;6.50;;;12.30;99.90;;;;;;4354070;28;655633;-69
2021/09/01 04:55:08;;;;;;;9.23;5.53;;;12.30;99.90;;;;;;4375870;28;655467;-69
2021/09/01 04:57:55;;;;;;;9.53;5.97;;;12.30;99.90;;;;;;4352378;28;654849;-70
2021/09/01 05:00:43;;;;;;;11.00;6.60;;;12.40;99.90;;;;;;4367277;28;655259;-70
2021/09/01 05:03:30;;;;;;;9.03;5.93;;;12.40;99.90;;;;;;4374376;28;655956;-70
2021/09/01 05:06:19;;;;;;;8.00;5.47;;;12.40;99.90;;;;;;4368730;28;655580;-69
2021/09/01 05:09:07;;;;;;;9.83;6.03;;;12.40;99.90;;;;;;4385950;28;654496;-69
2021/09/01 05:11:55;;;;;;;9.77;6.20;;;12.40;99.90;;;;;;4373976;28;655226;-69
2021/09/01 05:14:42;;;;;;;12.60;6.97;;;12.40;99.90;;;;;;4362405;28;654572;-69
2021/09/01 05:17:30;;;;;;;10.63;7.07;;;12.40;99.90;;;;;;4393481;28;656007;-69
2021/09/01 05:20:18;;;;;;;9.87;7.10;;;12.40;99.90;;;;;;4368347;28;655404;-69
2021/09/01 05:23:07;;;;;;;11.23;6.97;;;12.50;99.90;;;;;;4385014;28;654923;-70
2021/09/01 05:25:58;;;;;;;12.65;7.25;;;12.50;99.90;;;;;;4372698;28;655912;-70
2021/09/01 05:28:48;;;;;;;14.93;8.20;;;12.60;99.90;;;;;;4361054;28;656829;-69
2021/09/01 05:31:36;;;;;;;12.90;7.60;;;12.50;99.90;;;;;;4375337;28;656270;-70
2021/09/01 05:34:23;;;;;;;12.47;8.07;;;12.50;99.90;;;;;;4373162;28;655809;-70
2021/09/01 05:37:12;;;;;;;14.30;7.97;;;12.50;99.90;;;;;;4377694;28;656288;-70
2021/09/01 05:40:02;;;;;;;14.90;7.60;;;12.50;99.90;;;;;;4370132;28;655909;-70
2021/09/01 05:42:50;;;;;;;10.73;6.67;;;12.40;99.90;;;;;;4350146;28;656174;-70
2021/09/01 05:45:37;;;;;;;11.33;7.23;;;12.40;99.90;;;;;;4365255;28;655729;-70
2021/09/01 05:48:27;;;;;;;19.60;7.50;;;12.40;99.90;;;;;;4378516;28;656438;-70
2021/09/01 05:51:15;;;;;;;13.77;8.03;;;12.40;99.90;;;;;;4377170;28;656252;-69
2021/09/01 05:54:02;;;;;;;11.17;7.13;;;12.40;99.90;;;;;;4364695;28;655605;-69
2021/09/01 05:56:52;;;;;;;10.60;6.97;;;12.40;99.90;;;;;;4380280;28;656361;-70
2021/09/01 05:59:44;;;;;;;11.00;6.30;;;12.40;99.90;;;;;;4368557;28;656425;-70
2021/09/01 06:02:35;;;;;;;12.73;7.63;;;12.40;99.90;;;;;;4366341;28;655075;-69
2021/09/01 06:05:24;;;;;;;13.30;6.73;;;12.40;99.90;;;;;;4334718;28;655703;-70
2021/09/01 06:08:11;;;;;;;10.60;6.37;;;12.40;99.90;;;;;;4366644;28;655618;-70
2021/09/01 06:11:00;;;;;;;13.23;7.00;;;12.40;99.90;;;;;;4351831;28;655904;-70
2021/09/01 06:13:49;;;;;;;16.03;8.17;;;12.40;99.90;;;;;;4357868;28;655990;-70
2021/09/01 06:16:37;;;;;;;10.00;6.17;;;12.40;99.90;;;;;;4370814;28;655785;-70
2021/09/01 06:19:24;;;;;;;13.43;6.37;;;12.40;99.90;;;;;;4352153;28;656572;-70
2021/09/01 06:22:12;;;;;;;14.33;7.27;;;12.40;99.90;;;;;;4363793;28;656401;-69
2021/09/01 06:24:59;;;;;;;9.70;5.67;;;12.40;99.90;;;;;;4352320;28;655412;-69
2021/09/01 06:27:47;;;;;;;10.37;5.57;;;12.40;99.90;;;;;;4371096;28;654281;-69
2021/09/01 06:30:37;;;;;;;8.57;6.07;;;12.40;99.90;;;;;;4367873;28;656517;-70
2021/09/01 06:33:24;;;;;;;15.40;6.90;;;12.40;99.90;;;;;;4344878;28;654940;-70
2021/09/01 06:36:12;;;;;;;14.37;6.23;;;12.40;99.90;;;;;;4360324;28;656055;-70
2021/09/01 06:39:00;;;;;;;7.90;5.73;;;12.40;99.90;;;;;;4365382;28;656161;-70
2021/09/01 06:41:48;;;;;;;9.63;5.10;;;12.40;99.90;;;;;;4349916;28;654131;-70
2021/09/01 06:44:35;;;;;;;8.77;5.47;;;12.40;99.90;;;;;;4366514;28;654837;-70
2021/09/01 06:47:24;;;;;;;13.80;6.60;;;12.40;99.90;;;;;;4347076;28;654585;-70
2021/09/01 06:50:13;;;;;;;9.43;6.00;;;12.40;99.90;;;;;;4356005;28;656095;-70
2021/09/01 06:53:00;;;;;;;10.07;6.23;;;12.40;99.90;;;;;;4369404;28;654353;-69
2021/09/01 06:55:48;;;;;;;13.40;6.30;;;12.50;99.90;;;;;;4349054;28;655498;-70
2021/09/01 06:58:36;;;;;;;15.00;7.43;;;12.40;99.90;;;;;;4365735;28;656151;-70
2021/09/01 07:01:23;;;;;;;15.00;6.70;;;12.50;99.90;;;;;;4353877;28;655802;-71
2021/09/01 07:04:12;;;;;;;11.53;5.87;;;12.50;99.90;;;;;;4369755;28;656474;-70
2021/09/01 07:07:00;;;;;;;10.47;5.87;;;12.50;99.90;;;;;;4350505;28;656153;-70
2021/09/01 07:09:47;;;;;;;12.60;6.43;;;12.60;99.90;;;;;;4361612;28;656184;-70
2021/09/01 07:12:35;;;;;;;7.43;5.23;;;12.60;99.90;;;;;;4382777;28;656302;-70
2021/09/01 07:15:23;;;;;;;11.43;6.33;;;12.60;99.90;;;;;;4354562;28;654819;-70
2021/09/01 07:18:11;;;;;;;9.50;5.63;;;12.60;99.90;;;;;;4385531;28;655837;-70
2021/09/01 07:21:00;;;;;;;10.40;6.33;;;12.60;99.90;;;;;;4362747;28;654731;-70
2021/09/01 07:23:48;;;;;;;10.07;6.00;;;12.60;99.90;;;;;;4361926;28;655466;-69
2021/09/01 07:26:35;;;;;;;10.83;7.20;;;12.60;99.90;;;;;;4389057;28;657250;-69
2021/09/01 07:29:23;;;;;;;8.53;5.97;;;12.60;99.90;;;;;;4376261;28;655119;-70
2021/09/01 07:32:10;;;;;;;12.83;6.80;;;12.60;99.90;;;;;;4387534;28;655835;-70
2021/09/01 07:34:58;;;;;;;10.67;5.83;;;12.60;99.90;;;;;;4368898;28;655771;-70
2021/09/01 07:37:48;;;;;;;16.70;6.93;;;12.60;99.90;;;;;;4370157;28;656139;-71
2021/09/01 07:40:35;;;;;;;10.40;6.17;;;12.70;99.90;;;;;;4360086;28;655931;-70
2021/09/01 07:43:26;;;;;;;9.47;5.30;;;12.70;99.90;;;;;;4363158;28;655303;-70
2021/09/01 07:46:13;;;;;;;8.77;4.90;;;12.70;99.90;;;;;;4368664;28;654868;-70
2021/09/01 07:49:01;;;;;;;7.13;4.57;;;12.70;99.90;;;;;;4377657;28;654647;-70
2021/09/01 07:51:49;;;;;;;8.10;4.27;;;12.70;99.90;;;;;;4367945;28;654201;-70
2021/09/01 07:54:38;;;;;;;8.30;4.07;;;12.70;99.90;;;;;;4374039;28;655145;-70
2021/09/01 07:57:25;;;;;;;5.80;3.73;;;12.80;99.90;;;;;;4360174;28;655316;-70
2021/09/01 08:00:14;;;;;;;5.07;3.43;;;12.80;99.90;;;;;;4362835;28;654549;-70
2021/09/01 08:03:02;;;;;;;6.80;3.37;;;12.90;99.90;;;;;;4385460;28;654213;-70
2021/09/01 08:05:49;;;;;;;4.63;2.97;;;12.90;99.90;;;;;;4350920;28;654839;-69
2021/09/01 08:08:38;;;;;;;5.17;3.57;;;12.90;99.90;;;;;;4361400;28;654877;-71
2021/09/01 08:11:27;;;;;;;5.63;3.20;;;13.00;99.90;;;;;;4379538;28;655449;-70
2021/09/01 08:14:14;;;;;;;4.70;3.73;;;13.00;99.90;;;;;;4356493;28;655522;-70
2021/09/01 08:17:02;;;;;;;5.03;3.23;;;13.00;99.90;;;;;;4372984;28;654769;-70
2021/09/01 08:19:53;;;;;;;6.43;3.70;;;13.00;99.90;;;;;;4375419;28;655390;-70
2021/09/01 08:22:41;;;;;;;6.03;3.67;;;13.10;99.90;;;;;;4389620;28;655245;-70
2021/09/01 08:25:28;;;;;;;5.70;4.07;;;13.10;99.90;;;;;;4349953;28;655127;-70
2021/09/01 08:28:17;;;;;;;6.73;4.53;;;13.00;99.90;;;;;;4374110;28;654615;-69
2021/09/01 08:31:05;;;;;;;8.07;5.00;;;13.00;99.90;;;;;;4348207;28;655971;-70
2021/09/01 08:33:53;;;;;;;7.17;4.80;;;13.10;99.90;;;;;;4348153;28;654601;-70
2021/09/01 08:36:41;;;;;;;7.38;5.25;;;13.10;99.90;;;;;;4375828;28;654939;-70
2021/09/01 08:39:28;;;;;;;11.23;5.67;;;13.10;99.90;;;;;;4345735;28;654339;-70
2021/09/01 08:42:18;;;;;;;8.60;5.40;;;13.20;99.90;;;;;;4365979;28;655664;-70
2021/09/01 08:45:08;;;;;;;8.87;6.13;;;13.20;99.90;;;;;;4341931;28;656038;-70
2021/09/01 08:47:56;;;;;;;8.73;6.33;;;13.20;99.90;;;;;;4338866;28;655028;-70
2021/09/01 08:50:44;;;;;;;8.40;6.43;;;13.20;99.90;;;;;;4359049;28;654792;-70
2021/09/01 08:53:32;;;;;;;12.57;6.73;;;13.20;99.90;;;;;;4368363;28;654408;-70
2021/09/01 08:56:20;;;;;;;9.70;7.10;;;13.20;99.90;;;;;;4413686;28;655346;-70
2021/09/01 08:59:08;;;;;;;10.27;6.73;;;13.30;99.90;;;;;;4359878;28;655265;-70
2021/09/01 09:01:57;;;;;;;13.05;6.97;;;13.40;99.90;;;;;;4359429;28;656497;-70
2021/09/01 09:04:45;;;;;;;10.53;7.33;;;13.30;99.90;;;;;;4365414;28;656346;-70
2021/09/01 09:07:52;;;;;;;13.30;8.40;;;13.40;99.90;;;;;;4353357;28;656122;-70
2021/09/01 09:10:41;;;;;;;11.60;8.43;;;13.40;99.90;;;;;;4351138;28;656261;-70
2021/09/01 09:13:34;;;;;;;13.13;8.87;;;13.50;99.90;;;;;;4357421;28;655303;-70
2021/09/01 09:16:21;;;;;;;14.50;9.83;;;13.60;99.90;;;;;;4361846;28;655590;-70
2021/09/01 09:19:10;;;;;;;14.77;9.80;;;13.80;99.90;;;;;;4358918;28;656699;-70
2021/09/01 09:22:00;;;;;;;16.53;9.77;;;14.10;99.90;;;;;;4360682;28;656433;-70
2021/09/01 09:25:02;;;;;;;15.60;10.33;;;14.50;99.90;;;;;;4365019;28;655539;-70
2021/09/01 09:27:50;;;;;;;15.40;10.93;;;14.90;99.90;;;;;;4369586;28;656600;-70
2021/09/01 09:30:40;;;;;;;17.10;10.00;;;15.20;99.90;;;;;;4364691;28;656372;-70
2021/09/01 09:33:27;;;;;;;12.87;8.87;;;15.50;99.90;;;;;;4365388;28;657320;-70
2021/09/01 09:36:16;;;;;;;13.17;9.13;;;15.60;99.90;;;;;;4385784;28;656912;-70
2021/09/01 09:39:04;;;;;;;12.37;8.23;;;15.90;99.90;;;;;;4367620;28;656008;-70
2021/09/01 09:41:54;;;;;;;13.13;7.93;;;15.90;99.90;;;;;;4366369;28;655184;-70
2021/09/01 09:44:41;;;;;;;11.63;7.67;;;15.90;99.90;;;;;;4385557;28;655536;-70
2021/09/01 09:47:46;;;;;;;15.20;8.13;;;16.00;99.90;;;;;;4349979;28;657223;-70
2021/09/01 09:50:34;;;;;;;12.20;7.73;;;16.00;99.90;;;;;;4341999;28;656300;-70
2021/09/01 09:53:34;;;;;;;15.97;8.83;;;16.00;99.90;;;;;;4376002;28;655694;-70
2021/09/01 09:56:24;;;;;;;14.03;8.00;;;16.00;99.90;;;;;;4355838;28;655502;-70
2021/09/01 09:59:17;;;;;;;15.60;8.50;;;16.20;99.90;;;;;;4362762;28;655354;-70
2021/09/01 10:02:05;;;;;;;14.87;8.73;;;16.20;99.90;;;;;;4364437;28;656883;-71
2021/09/01 10:04:53;;;;;;;14.53;8.60;;;16.20;99.90;;;;;;4346218;28;655209;-70
2021/09/01 10:07:40;;;;;;;16.25;8.93;;;16.40;99.90;;;;;;4394103;28;655995;-70
2021/09/01 10:10:29;;;;;;;17.90;8.97;;;16.90;99.90;;;;;;4364528;28;655402;-70
2021/09/01 10:13:17;;;;;;;14.20;8.05;;;17.30;99.90;;;;;;4360374;28;655371;-71
2021/09/01 10:16:15;;;;;;;12.27;7.10;;;17.50;99.90;;;;;;4374187;28;656623;-70
2021/09/01 10:19:06;;;;;;;12.43;7.03;;;18.10;99.90;;;;;;4345945;28;655734;-70
2021/09/01 10:21:54;;;;;;;14.60;7.30;;;18.60;30.30;;;;;;4359573;28;655937;-70
2021/09/01 10:24:44;;;;;;;12.07;7.70;;;18.70;44.40;;;;;;4385159;28;655515;-70
2021/09/01 10:27:33;;;;;;;13.03;6.43;;;19.00;90.70;;;;;;4355506;28;655618;-70
2021/09/01 10:30:21;;;;;;;11.17;6.83;;;18.90;1.00;;;;;;4360002;28;656097;-70
2021/09/01 10:33:08;;;;;;;10.60;6.70;;;18.70;1.00;;;;;;4364059;28;654481;-69
2021/09/01 10:35:56;;;;;;;10.20;6.50;;;18.50;1.00;;;;;;4382679;28;654303;-70
2021/09/01 10:38:43;;;;;;;11.80;6.67;;;18.20;30.40;;;;;;4362551;28;654780;-70
2021/09/01 10:41:31;;;;;;;11.13;6.60;;;17.80;29.80;;;;;;4371298;28;655809;-70
2021/09/01 10:44:44;;;;;;;8.73;6.30;;;17.20;1.00;;;;;;4370210;28;656387;-70
2021/09/01 10:48:01;;;;;;;9.17;6.70;;;16.50;10.60;;;;;;4359484;28;653492;-70
2021/09/01 10:50:51;;;;;;;9.97;7.33;;;16.40;18.00;;;;;;4351247;28;654728;-70
2021/09/01 10:53:38;;;;;;;13.10;6.60;;;16.30;10.50;;;;;;4361046;28;654286;-70
2021/09/01 10:56:26;;;;;;;13.77;7.43;;;16.30;10.50;;;;;;4376631;28;655042;-70
2021/09/01 10:59:17;;;;;;;9.83;6.07;;;16.60;79.10;;;;;;4370369;28;656070;-70
2021/09/01 11:02:09;;;;;;;8.63;5.07;;;16.90;3.60;;;;;;4356575;28;654569;-70
2021/09/01 11:04:58;;;;;;;10.57;5.47;;;17.00;1.00;;;;;;4355141;28;653109;-70
2021/09/01 11:07:45;;;;;;;12.87;6.10;;;17.00;1.00;;;;;;4373671;28;655413;-70
2021/09/01 11:10:33;;;;;;;14.97;7.90;;;17.00;1.00;;;;;;4354913;28;654561;-70
2021/09/01 11:13:20;;;;;;;17.90;7.83;;;17.00;1.00;;;;;;4381727;28;655245;-70
2021/09/01 11:16:21;;;;;;;15.40;8.50;;;17.00;1.00;;;;;;4375663;28;655103;-70
2021/09/01 11:19:10;;;;;;;15.60;8.73;;;16.80;1.00;;;;;;4362831;28;654733;-70
2021/09/01 11:21:59;;;;;;;18.07;8.73;;;16.80;1.00;;;;;;4371803;28;654636;-70
2021/09/01 11:24:48;;;;;;;15.33;8.37;;;16.80;1.00;;;;;;4387604;28;654823;-70
2021/09/01 11:27:46;;;;;;;15.73;8.73;;;16.90;1.00;;;;;;4364388;28;654520;-70
2021/09/01 11:30:34;;;;;;;13.83;7.37;;;17.30;1.00;;;;;;4378282;28;654584;-70
2021/09/01 11:33:22;;;;;;;11.43;5.93;;;17.30;1.00;;;;;;4386046;28;654084;-70
2021/09/01 11:36:11;;;;;;;13.73;6.83;;;17.10;1.00;;;;;;4360093;28;655920;-70
2021/09/01 11:38:59;;;;;;;11.70;6.93;;;16.90;1.00;;;;;;4363548;28;654833;-70
2021/09/01 11:41:47;;;;;;;14.60;6.77;;;16.60;1.00;;;;;;4382151;28;654343;-70
2021/09/01 11:44:34;;;;;;;15.00;7.03;;;16.40;1.00;;;;;;4358292;28;655733;-70
2021/09/01 11:47:22;;;;;;;15.93;7.40;;;16.80;1.00;;;;;;4361380;28;654700;-70
2021/09/01 11:50:11;;;;;;;15.67;7.30;;;17.60;1.00;;;;;;4380746;28;655618;-70
2021/09/01 11:53:00;;;;;;;16.90;7.83;;;18.30;1.00;;;;;;4366836;28;654450;-70
2021/09/01 11:55:47;;;;;;;13.82;7.95;;;18.30;99.90;;;;;;4352962;28;654481;-69
2021/09/01 11:58:35;;;;;;;20.30;7.97;;;18.50;1.00;;;;;;4397145;28;657026;-70
2021/09/01 12:01:22;;;;;;;15.50;6.87;;;19.00;99.90;;;;;;4359681;28;654474;-70
2021/09/01 12:04:11;;;;;;;14.10;7.20;;;19.50;53.30;;;;;;4376725;28;656465;-70
2021/09/01 12:06:59;;;;;;;18.40;5.93;;;20.00;1.00;;;;;;4373764;28;655499;-70
2021/09/01 12:09:48;;;;;;;12.60;5.63;;;19.90;99.90;;;;;;4373296;28;654291;-70
2021/09/01 12:12:36;;;;;;;11.30;6.53;;;19.20;1.00;;;;;;4369042;28;656892;-69
2021/09/01 12:15:23;;;;;;;12.57;6.60;;;18.30;99.90;;;;;;4359833;28;654458;-69
2021/09/01 12:18:11;;;;;;;10.70;6.70;;;17.80;1.00;;;;;;4378247;28;654935;-70
2021/09/01 12:20:59;;;;;;;12.47;5.63;;;17.70;99.90;;;;;;4363669;28;655684;-70
2021/09/01 12:23:48;;;;;;;9.20;5.73;;;18.20;99.90;;;;;;4366080;28;655378;-70
2021/09/01 12:26:49;;;;;;;9.00;5.65;;;18.80;99.90;;;;;;4395578;28;654678;-70
2021/09/01 12:29:39;;;;;;;8.47;5.37;;;19.30;1.00;;;;;;4345168;28;654528;-69
2021/09/01 12:32:27;;;;;;;11.07;5.23;;;19.40;1.00;;;;;;4383498;28;653670;-69
2021/09/01 12:35:17;;;;;;;9.33;4.77;;;19.80;1.00;;;;;;4359551;28;655284;-69
2021/09/01 12:38:06;;;;;;;10.00;5.40;;;20.20;1.00;;;;;;4354539;28;653948;-70
2021/09/01 12:40:54;;;;;;;11.50;5.30;;;19.60;99.90;;;;;;4353841;28;655573;-69
2021/09/01 12:43:44;;;;;;;11.60;5.40;;;19.00;1.00;;;;;;4372682;28;655301;-69
2021/09/01 12:46:31;;;;;;;9.90;5.60;;;18.40;99.90;;;;;;4379841;28;654273;-70
2021/09/01 12:49:26;;;;;;;10.30;5.63;;;18.20;99.90;;;;;;4359331;28;654333;-69
2021/09/01 12:52:14;;;;;;;12.67;5.97;;;18.30;99.90;;;;;;4341228;28;656928;-70
2021/09/01 12:55:01;;;;;;;9.77;5.87;;;19.00;99.90;;;;;;4381394;28;656391;-69
2021/09/01 12:57:49;;;;;;;8.70;5.10;;;19.70;1.00;;;;;;4355880;28;656139;-70
2021/09/01 13:00:38;;;;;;;11.73;5.60;;;19.80;99.90;;;;;;4386974;28;654217;-70
2021/09/01 13:03:26;;;;;;;8.80;5.30;;;20.10;1.00;;;;;;4339053;28;656730;-70
2021/09/01 13:06:13;;;;;;;13.93;5.93;;;19.80;69.60;;;;;;4366624;28;654968;-69
2021/09/01 13:09:01;;;;;;;9.67;5.37;;;19.70;1.00;;;;;;4385864;28;657790;-69
2021/09/01 13:11:49;;;;;;;7.93;4.97;;;19.50;1.00;;;;;;4370408;28;654750;-69
2021/09/01 13:14:39;;;;;;;10.83;4.77;;;19.90;1.00;;;;;;4396051;28;655362;-70
2021/09/01 13:17:29;;;;;;;13.43;5.97;;;19.40;1.00;;;;;;4358978;28;655207;-68
2021/09/01 13:20:17;;;;;;;8.87;5.40;;;18.60;1.00;;;;;;4379863;28;655186;-68
2021/09/01 13:23:05;;;;;;;16.10;6.13;;;18.00;1.00;;;;;;4351859;28;655129;-69
2021/09/01 13:25:53;;;;;;;9.70;5.63;;;17.50;57.90;;;;;;4367153;28;655426;-68
2021/09/01 13:28:40;;;;;;;9.37;5.63;;;17.00;1.00;;;;;;4393873;28;656483;-69
2021/09/01 13:31:28;;;;;;;17.73;6.90;;;16.80;1.00;;;;;;4369197;28;654894;-68
2021/09/01 13:34:17;;;;;;;14.27;6.00;;;16.40;99.90;;;;;;4382739;28;656254;-69
2021/09/01 13:37:05;;;;;;;13.67;6.40;;;16.40;99.90;;;;;;4357105;28;657220;-69
2021/09/01 13:39:52;;;;;;;10.38;5.85;;;17.00;99.90;;;;;;4357869;28;656852;-69
2021/09/01 13:42:40;;;;;;;11.50;6.10;;;17.60;99.90;;;;;;4381285;28;657406;-69
2021/09/01 13:45:28;;;;;;;9.63;5.13;;;18.00;1.00;;;;;;4365941;28;657578;-69
2021/09/01 13:48:15;;;;;;;10.60;5.60;;;18.10;1.00;;;;;;4383111;28;654814;-69
2021/09/01 13:51:05;;;;;;;14.70;5.53;;;18.30;1.00;;;;;;4362698;28;655573;-69
2021/09/01 13:53:52;;;;;;;11.93;5.83;;;18.60;1.00;;;;;;4366580;28;655588;-69
2021/09/01 13:56:40;;;;;;;9.13;5.53;;;18.40;99.90;;;;;;4394750;28;656268;-69
2021/09/01 13:59:28;;;;;;;9.03;5.53;;;18.20;99.90;;;;;;4370846;28;656117;-69
2021/09/01 14:02:18;;;;;;;11.77;6.30;;;17.90;1.00;;;;;;4396396;28;656212;-69
2021/09/01 14:05:06;;;;;;;10.10;5.70;;;17.70;1.00;;;;;;4367295;28;656322;-69
2021/09/01 14:07:55;;;;;;;12.27;6.30;;;17.50;1.00;;;;;;4364730;28;655704;-69
2021/09/01 14:10:43;;;;;;;10.33;5.90;;;17.30;1.00;;;;;;4367458;28;656331;-69
2021/09/01 14:13:30;;;;;;;13.83;6.60;;;17.10;1.00;;;;;;4382838;28;656508;-69
2021/09/01 14:16:18;;;;;;;15.63;6.30;;;17.00;99.90;;;;;;4367952;28;656310;-69
2021/09/01 14:19:05;;;;;;;14.00;5.83;;;16.90;99.90;;;;;;4386645;28;657709;-69
2021/09/01 14:21:53;;;;;;;13.03;6.27;;;16.70;99.90;;;;;;4360297;28;656745;-69